Time;durP1;ratioP1;P1;durP2;ratioP2;P2;SDS_P1;SDS_P2;PMS_P1;PMS_P2;Temp;Humidity;BMP_temperature;BMP_pressure;BME280_temperature;BME280_humidity;BME280_pressure;Samples;Min_cycle;Max_cycle;Signal;HPM_P1;HPM_P2
2021/11/28 00:02:00;;;;;;;4.88;4.18;;;10.10;82.40;;;;;;5156572;27;20074;-58
2021/11/28 00:04:25;;;;;;;4.93;4.13;;;10.10;82.40;;;;;;5156192;27;20078;-59
2021/11/28 00:12:08;;;;;;;4.40;4.00;;;10.20;82.50;;;;;;5156527;27;20039;-59
2021/11/28 00:14:34;;;;;;;5.57;4.07;;;10.30;82.50;;;;;;5156239;27;20217;-55
2021/11/28 00:17:00;;;;;;;4.30;3.90;;;10.10;82.40;;;;;;5156184;27;20065;-59
2021/11/28 00:19:26;;;;;;;4.25;3.85;;;10.10;82.40;;;;;;5156413;27;20084;-59
2021/11/28 00:21:51;;;;;;;4.32;3.92;;;10.20;82.50;;;;;;5156122;27;20117;-59
2021/11/28 00:24:17;;;;;;;4.65;4.15;;;10.20;82.50;;;;;;5155823;27;20039;-58
2021/11/28 00:26:44;;;;;;;4.35;3.55;;;10.20;82.50;;;;;;5156088;27;20397;-60
2021/11/28 00:29:10;;;;;;;4.55;4.15;;;10.10;82.40;;;;;;5155642;27;20049;-59
2021/11/28 00:31:36;;;;;;;4.47;4.07;;;10.10;82.40;;;;;;5155904;27;20035;-59
2021/11/28 00:34:02;;;;;;;4.20;3.80;;;10.20;82.50;;;;;;5155514;27;20038;-59
2021/11/28 00:36:28;;;;;;;4.28;3.88;;;10.10;82.40;;;;;;5155411;27;20049;-60
2021/11/28 00:38:54;;;;;;;4.70;3.83;;;10.10;82.40;;;;;;5155158;27;20038;-60
2021/11/28 00:41:20;;;;;;;4.47;3.88;;;10.10;82.60;;;;;;5155250;27;20042;-56
2021/11/28 00:43:46;;;;;;;4.38;3.95;;;10.10;82.40;;;;;;5155584;27;20116;-58
2021/11/28 00:46:11;;;;;;;5.00;4.00;;;10.10;82.30;;;;;;5155536;27;20087;-56
2021/11/28 00:48:41;;;;;;;4.70;3.80;;;10.10;82.30;;;;;;5155530;27;20075;-57
2021/11/28 00:53:42;;;;;;;4.53;3.58;;;10.10;82.30;;;;;;5155688;27;20047;-55
2021/11/28 00:56:08;;;;;;;4.43;4.03;;;10.20;82.40;;;;;;5154915;27;20057;-59
2021/11/28 00:58:33;;;;;;;4.72;4.05;;;10.10;82.30;;;;;;5155315;27;20129;-55
2021/11/28 01:00:59;;;;;;;4.47;3.97;;;10.10;82.30;;;;;;5155334;27;20114;-54
2021/11/28 01:03:25;;;;;;;4.20;3.65;;;10.10;82.30;;;;;;5154583;27;20050;-55
2021/11/28 01:05:52;;;;;;;4.45;3.90;;;10.10;82.30;;;;;;5155105;27;20034;-54
2021/11/28 01:08:17;;;;;;;4.22;3.83;;;10.10;82.30;;;;;;5153644;27;20085;-55
2021/11/28 01:10:45;;;;;;;4.63;4.13;;;10.10;82.30;;;;;;5155110;27;20074;-54
2021/11/28 01:13:11;;;;;;;4.50;3.75;;;10.10;82.30;;;;;;5154324;27;20094;-53
2021/11/28 01:15:36;;;;;;;4.60;3.85;;;10.10;82.30;;;;;;5155000;27;20125;-55
2021/11/28 01:18:02;;;;;;;4.65;4.07;;;10.10;82.40;;;;;;5155026;27;20098;-56
2021/11/28 01:20:28;;;;;;;4.30;3.90;;;10.20;82.30;;;;;;5154855;27;20050;-56
2021/11/28 01:22:54;;;;;;;5.38;4.22;;;10.20;82.40;;;;;;5154601;27;20054;-55
2021/11/28 01:25:20;;;;;;;4.50;3.80;;;10.10;82.30;;;;;;5136300;27;20054;-54
2021/11/28 01:27:56;;;;;;;5.28;4.32;;;10.10;82.30;;;;;;5154517;27;20398;-56
2021/11/28 01:30:25;;;;;;;5.05;4.32;;;10.10;82.30;;;;;;5136354;27;20054;-56
2021/11/28 01:33:00;;;;;;;4.38;3.97;;;10.20;82.30;;;;;;5138286;27;20046;-56
2021/11/28 01:35:28;;;;;;;5.63;4.30;;;10.10;82.30;;;;;;5153189;27;20482;-55
2021/11/28 01:37:53;;;;;;;5.38;4.10;;;10.10;82.30;;;;;;5154781;27;20931;-56
2021/11/28 01:40:21;;;;;;;4.50;3.70;;;10.10;82.30;;;;;;5136200;27;20042;-55
2021/11/28 01:43:09;;;;;;;4.30;3.80;;;10.10;82.30;;;;;;5135526;27;20046;-50
2021/11/28 01:45:36;;;;;;;5.57;4.60;;;10.20;82.30;;;;;;5132246;27;20104;-55
2021/11/28 01:48:06;;;;;;;4.60;4.10;;;10.30;82.40;;;;;;5118375;27;20046;-56
2021/11/28 01:50:34;;;;;;;4.28;3.78;;;10.10;82.30;;;;;;5154500;27;20047;-56
2021/11/28 01:53:02;;;;;;;5.20;4.32;;;10.10;82.30;;;;;;5154508;27;20115;-55
2021/11/28 01:55:31;;;;;;;5.97;4.32;;;10.10;82.90;;;;;;5154188;27;20100;-55
2021/11/28 01:57:59;;;;;;;4.50;4.10;;;10.10;82.30;;;;;;5135942;27;20047;-55
2021/11/28 02:00:30;;;;;;;4.75;4.25;;;10.10;82.30;;;;;;5154086;27;20038;-55
2021/11/28 02:02:58;;;;;;;4.55;4.10;;;10.10;82.20;;;;;;5153949;27;20031;-56
2021/11/28 02:05:24;;;;;;;4.60;3.90;;;10.10;82.30;;;;;;5154013;27;20042;-56
2021/11/28 02:07:51;;;;;;;4.15;3.75;;;10.10;82.20;;;;;;5134816;27;20039;-58
2021/11/28 02:10:17;;;;;;;4.70;3.92;;;10.10;82.20;;;;;;5154271;27;20038;-56
2021/11/28 02:12:44;;;;;;;5.00;4.53;;;10.10;82.20;;;;;;5154543;27;20038;-55
2021/11/28 02:15:11;;;;;;;4.10;3.70;;;10.10;82.20;;;;;;5153890;27;20039;-54
2021/11/28 02:17:37;;;;;;;4.78;4.20;;;10.10;82.30;;;;;;5153992;27;20035;-56
2021/11/28 02:20:05;;;;;;;4.78;4.28;;;10.10;82.30;;;;;;5153871;27;20078;-56
2021/11/28 02:22:31;;;;;;;4.60;3.95;;;10.10;82.20;;;;;;5154020;27;20053;-54
2021/11/28 02:24:57;;;;;;;4.68;4.20;;;10.10;82.30;;;;;;5153879;27;20035;-55
2021/11/28 02:27:22;;;;;;;4.78;4.28;;;10.10;82.30;;;;;;5153672;27;20042;-56
2021/11/28 02:29:48;;;;;;;4.25;3.85;;;10.10;82.30;;;;;;5135418;27;20425;-56
2021/11/28 02:32:15;;;;;;;6.03;4.20;;;10.10;82.20;;;;;;5153336;27;20039;-52
2021/11/28 02:34:41;;;;;;;4.70;4.20;;;10.10;82.20;;;;;;5153082;27;20057;-57
2021/11/28 02:37:07;;;;;;;4.35;3.88;;;10.10;82.20;;;;;;5152979;27;20101;-56
2021/11/28 02:39:34;;;;;;;4.20;3.70;;;10.10;82.20;;;;;;5153505;27;20042;-55
2021/11/28 02:42:01;;;;;;;4.50;4.03;;;10.10;82.20;;;;;;5135618;27;20436;-56
2021/11/28 02:44:27;;;;;;;5.80;4.40;;;10.10;82.20;;;;;;5153979;27;20065;-55
2021/11/28 02:46:53;;;;;;;4.90;4.20;;;10.10;82.20;;;;;;5153562;27;20031;-54
2021/11/28 02:49:19;;;;;;;4.35;3.85;;;10.10;82.20;;;;;;5152995;27;20038;-56
2021/11/28 02:51:44;;;;;;;5.50;4.15;;;10.10;82.20;;;;;;5153828;27;20101;-55
2021/11/28 02:54:10;;;;;;;4.18;3.78;;;10.10;82.20;;;;;;5153278;27;20038;-54
2021/11/28 02:56:39;;;;;;;4.35;3.80;;;10.10;82.20;;;;;;5154071;27;20041;-54
2021/11/28 02:59:05;;;;;;;5.13;4.32;;;10.10;82.20;;;;;;5153219;27;20035;-54
2021/11/28 03:01:31;;;;;;;4.65;4.22;;;10.10;82.20;;;;;;5153836;27;20435;-54
2021/11/28 03:03:57;;;;;;;4.22;3.78;;;10.10;82.10;;;;;;5153315;27;20050;-54
2021/11/28 03:06:22;;;;;;;4.38;3.92;;;10.10;82.10;;;;;;5153249;27;20111;-56
2021/11/28 03:08:48;;;;;;;5.30;4.00;;;10.20;82.20;;;;;;5134720;27;20046;-55
2021/11/28 03:11:15;;;;;;;6.03;3.97;;;10.10;82.10;;;;;;5153245;27;20027;-56
2021/11/28 03:13:46;;;;;;;4.68;4.18;;;10.10;82.10;;;;;;5153691;27;20045;-55
2021/11/28 03:16:19;;;;;;;4.60;3.88;;;10.10;82.10;;;;;;5154049;27;20041;-56
2021/11/28 03:18:46;;;;;;;4.68;4.18;;;10.10;82.10;;;;;;5134707;27;20049;-56
2021/11/28 03:21:19;;;;;;;5.53;4.07;;;10.10;82.10;;;;;;5153363;27;20031;-56
2021/11/28 03:23:46;;;;;;;4.78;4.32;;;10.10;82.10;;;;;;5153715;27;20039;-55
2021/11/28 03:26:12;;;;;;;5.55;4.25;;;10.10;82.10;;;;;;5117860;27;20077;-56
2021/11/28 03:28:42;;;;;;;4.70;4.03;;;10.10;82.10;;;;;;5153453;27;20070;-57
2021/11/28 03:31:07;;;;;;;5.05;4.53;;;10.10;82.10;;;;;;5154985;27;20053;-55
2021/11/28 03:33:34;;;;;;;4.53;3.95;;;10.10;82.00;;;;;;5157131;27;20034;-54
2021/11/28 03:36:00;;;;;;;4.82;4.32;;;10.10;82.10;;;;;;5154525;27;20078;-55
2021/11/28 03:38:26;;;;;;;6.13;4.85;;;10.10;82.00;;;;;;5156719;27;20082;-55
2021/11/28 03:40:52;;;;;;;5.00;4.38;;;10.10;82.00;;;;;;5157076;27;20039;-55
2021/11/28 03:43:17;;;;;;;5.00;4.50;;;10.10;82.10;;;;;;5157095;27;20043;-55
2021/11/28 03:45:43;;;;;;;4.32;3.92;;;10.10;82.00;;;;;;5157211;27;20042;-54
2021/11/28 03:48:09;;;;;;;5.20;4.40;;;10.10;82.00;;;;;;5156577;27;20095;-55
2021/11/28 03:50:35;;;;;;;5.93;4.28;;;10.10;82.00;;;;;;5157060;27;20039;-55
2021/11/28 03:53:00;;;;;;;6.20;4.70;;;10.10;82.00;;;;;;5155927;27;20129;-54
2021/11/28 03:55:26;;;;;;;4.50;4.00;;;10.10;82.00;;;;;;5137890;27;20161;-55
2021/11/28 03:57:52;;;;;;;4.95;4.10;;;10.10;82.00;;;;;;5138108;27;20095;-55
2021/11/28 04:00:18;;;;;;;4.55;3.88;;;10.10;81.90;;;;;;5156786;27;20039;-55
2021/11/28 04:02:44;;;;;;;5.25;4.75;;;10.10;82.00;;;;;;5156620;27;20431;-53
2021/11/28 04:05:10;;;;;;;5.57;4.43;;;10.10;82.00;;;;;;5156686;27;20043;-55
2021/11/28 04:07:37;;;;;;;5.57;4.72;;;10.00;81.90;;;;;;5155584;27;20387;-56
2021/11/28 04:10:05;;;;;;;4.90;4.40;;;10.10;81.90;;;;;;5156302;27;20107;-56
2021/11/28 04:12:31;;;;;;;4.82;4.30;;;10.10;81.90;;;;;;5156518;27;20406;-56
2021/11/28 04:14:57;;;;;;;5.45;4.63;;;10.10;81.90;;;;;;5137347;27;20054;-56
2021/11/28 04:17:24;;;;;;;5.90;4.70;;;10.10;81.90;;;;;;5156356;27;20113;-55
2021/11/28 04:19:52;;;;;;;5.25;4.75;;;10.00;81.90;;;;;;5136992;27;20137;-54
2021/11/28 04:22:18;;;;;;;5.15;4.28;;;10.10;81.90;;;;;;5156445;27;20491;-51
2021/11/28 04:24:43;;;;;;;5.57;4.32;;;10.00;81.90;;;;;;5155199;27;20130;-54
2021/11/28 04:27:09;;;;;;;5.45;4.50;;;10.00;82.50;;;;;;5155942;27;20773;-55
2021/11/28 04:29:35;;;;;;;5.03;4.53;;;10.10;82.00;;;;;;5156051;27;20394;-54
2021/11/28 04:32:01;;;;;;;5.90;4.90;;;10.10;81.90;;;;;;5137290;27;20035;-56
2021/11/28 04:34:27;;;;;;;5.57;4.47;;;10.00;81.90;;;;;;5155197;27;20049;-55
2021/11/28 04:36:53;;;;;;;5.90;5.30;;;10.00;81.90;;;;;;5155671;27;20042;-54
2021/11/28 04:39:19;;;;;;;5.13;4.43;;;10.00;81.90;;;;;;5155401;27;20114;-53
2021/11/28 04:41:44;;;;;;;5.30;4.50;;;10.00;81.90;;;;;;5155642;27;20042;-55
2021/11/28 04:44:10;;;;;;;5.45;4.35;;;10.00;81.90;;;;;;5155530;27;20039;-55
2021/11/28 04:46:37;;;;;;;6.03;4.78;;;10.10;81.90;;;;;;5155503;27;20042;-56
2021/11/28 04:49:03;;;;;;;5.65;4.78;;;10.00;81.90;;;;;;5155646;27;20030;-56
2021/11/28 04:51:30;;;;;;;6.40;4.75;;;10.00;81.90;;;;;;5137243;27;20050;-54
2021/11/28 04:53:57;;;;;;;5.35;4.60;;;10.00;81.90;;;;;;5155241;27;20517;-57
2021/11/28 04:56:24;;;;;;;5.55;4.68;;;10.00;81.90;;;;;;5155374;27;20039;-57
2021/11/28 04:58:49;;;;;;;5.65;4.65;;;10.00;81.90;;;;;;5155421;27;20408;-52
2021/11/28 05:01:15;;;;;;;5.28;4.47;;;10.00;81.90;;;;;;5136905;27;20045;-55
2021/11/28 05:03:41;;;;;;;5.72;4.78;;;10.10;81.90;;;;;;5155306;27;20366;-56
2021/11/28 05:06:07;;;;;;;4.72;4.28;;;10.00;81.80;;;;;;5155294;27;20042;-56
2021/11/28 05:08:33;;;;;;;5.53;4.68;;;10.00;81.80;;;;;;5154475;27;20042;-56
2021/11/28 05:10:59;;;;;;;4.82;4.32;;;10.00;81.80;;;;;;5155295;27;20050;-56
2021/11/28 05:13:24;;;;;;;4.82;4.18;;;10.00;81.90;;;;;;5136370;27;20080;-57
2021/11/28 05:15:50;;;;;;;5.80;5.03;;;10.00;81.80;;;;;;5154964;27;20050;-53
2021/11/28 05:18:16;;;;;;;4.88;4.35;;;10.00;81.90;;;;;;5155488;27;20039;-54
2021/11/28 05:20:42;;;;;;;5.32;4.70;;;10.00;81.80;;;;;;5155362;27;20545;-55
2021/11/28 05:23:07;;;;;;;5.30;4.80;;;10.00;81.90;;;;;;5155207;27;20035;-54
2021/11/28 05:25:35;;;;;;;5.15;4.65;;;10.00;81.90;;;;;;5154661;27;20047;-54
2021/11/28 05:28:00;;;;;;;4.90;4.40;;;10.00;81.90;;;;;;5154619;27;20363;-56
2021/11/28 05:30:26;;;;;;;5.00;4.50;;;10.00;81.90;;;;;;5154801;27;20108;-56
2021/11/28 05:32:52;;;;;;;4.75;4.30;;;10.00;81.90;;;;;;5136163;27;20040;-53
2021/11/28 05:35:17;;;;;;;5.10;4.60;;;10.00;81.90;;;;;;5136221;27;20046;-49
2021/11/28 05:37:43;;;;;;;5.78;4.60;;;10.00;81.80;;;;;;5153533;27;20097;-55
2021/11/28 05:40:09;;;;;;;4.93;4.32;;;10.00;81.80;;;;;;5154527;27;20082;-55
2021/11/28 05:42:35;;;;;;;5.78;4.68;;;10.00;81.80;;;;;;5154604;27;20038;-56
2021/11/28 05:45:02;;;;;;;5.57;4.78;;;10.00;81.90;;;;;;5153360;27;20042;-55
2021/11/28 05:47:28;;;;;;;4.32;3.92;;;10.00;81.80;;;;;;5154613;27;20130;-55
2021/11/28 05:49:54;;;;;;;5.47;4.60;;;10.00;81.90;;;;;;5154232;27;20129;-53
2021/11/28 05:52:19;;;;;;;5.03;4.50;;;10.00;81.80;;;;;;5154918;27;20039;-54
2021/11/28 05:54:46;;;;;;;5.18;4.68;;;10.00;81.90;;;;;;5134705;27;20046;-55
2021/11/28 05:57:12;;;;;;;5.90;5.07;;;10.00;81.80;;;;;;5135771;27;20493;-53
2021/11/28 05:59:38;;;;;;;4.70;4.22;;;10.00;81.90;;;;;;5153748;27;20058;-56
2021/11/28 06:02:04;;;;;;;5.80;4.95;;;10.00;81.90;;;;;;5154520;27;20526;-56
2021/11/28 06:04:29;;;;;;;5.03;4.53;;;9.90;81.80;;;;;;5154444;27;20402;-56
2021/11/28 06:06:55;;;;;;;5.53;4.53;;;10.00;81.90;;;;;;5154257;27;20038;-57
2021/11/28 06:09:21;;;;;;;5.40;4.75;;;10.00;81.90;;;;;;5153950;27;20047;-56
2021/11/28 06:11:46;;;;;;;5.65;4.43;;;9.90;81.80;;;;;;5153524;27;20478;-56
2021/11/28 06:14:12;;;;;;;5.18;4.65;;;10.00;81.80;;;;;;5135691;27;20034;-56
2021/11/28 06:16:38;;;;;;;4.45;4.05;;;9.90;81.80;;;;;;5153173;27;20367;-57
2021/11/28 06:19:03;;;;;;;5.32;4.65;;;9.90;81.80;;;;;;5154054;27;20099;-56
2021/11/28 06:21:29;;;;;;;5.35;4.53;;;9.90;81.80;;;;;;5153985;27;20118;-56
2021/11/28 06:23:55;;;;;;;4.88;4.38;;;10.00;81.80;;;;;;5154012;27;20026;-59
2021/11/28 06:26:20;;;;;;;4.75;4.20;;;10.00;81.80;;;;;;5153490;27;20031;-57
2021/11/28 06:28:46;;;;;;;5.22;4.00;;;9.90;81.80;;;;;;5153696;27;20054;-54
2021/11/28 06:31:12;;;;;;;4.30;3.90;;;9.90;81.80;;;;;;5153887;27;20077;-53
2021/11/28 06:33:38;;;;;;;4.90;4.40;;;9.90;81.80;;;;;;5134915;27;20066;-58
2021/11/28 06:36:04;;;;;;;4.88;4.32;;;9.90;81.80;;;;;;5153578;27;20084;-55
2021/11/28 06:38:30;;;;;;;4.60;4.18;;;9.90;81.80;;;;;;5153592;27;20089;-56
2021/11/28 06:40:55;;;;;;;5.55;4.72;;;9.90;81.80;;;;;;5153499;27;20078;-58
2021/11/28 06:43:21;;;;;;;4.72;4.22;;;9.90;81.80;;;;;;5153739;27;20078;-58
2021/11/28 06:45:47;;;;;;;4.25;3.80;;;10.00;81.80;;;;;;5154010;27;20113;-53
2021/11/28 06:48:12;;;;;;;5.05;4.55;;;10.00;81.90;;;;;;5153415;27;20558;-56
2021/11/28 06:50:38;;;;;;;4.50;4.10;;;10.00;81.80;;;;;;5153124;27;20085;-57
2021/11/28 06:53:04;;;;;;;5.05;4.40;;;9.90;81.80;;;;;;5153703;27;20394;-53
2021/11/28 06:55:31;;;;;;;4.20;3.80;;;9.90;81.80;;;;;;5153672;27;20042;-54
2021/11/28 06:57:57;;;;;;;4.35;3.95;;;10.00;81.90;;;;;;5154063;27;20086;-57
2021/11/28 07:00:22;;;;;;;4.65;4.15;;;9.90;81.80;;;;;;5153033;27;20117;-55
2021/11/28 07:02:48;;;;;;;4.90;4.10;;;9.90;81.80;;;;;;5153699;27;20034;-56
2021/11/28 07:05:15;;;;;;;4.30;3.80;;;9.90;81.80;;;;;;5154871;27;20546;-54
2021/11/28 07:07:40;;;;;;;5.07;4.18;;;9.90;81.80;;;;;;5157714;27;20039;-55
2021/11/28 07:10:07;;;;;;;4.38;3.95;;;9.90;81.80;;;;;;5137608;27;20055;-55
2021/11/28 07:12:33;;;;;;;4.40;4.00;;;9.90;81.80;;;;;;5156871;27;20084;-54
2021/11/28 07:14:58;;;;;;;4.20;3.80;;;9.90;81.80;;;;;;5156458;27;20510;-55
2021/11/28 07:17:24;;;;;;;3.95;3.55;;;9.90;81.80;;;;;;5157853;27;20062;-54
2021/11/28 07:19:50;;;;;;;3.97;3.53;;;9.90;81.80;;;;;;5156919;27;20042;-57
2021/11/28 07:22:16;;;;;;;4.35;3.83;;;9.90;81.80;;;;;;5156811;27;20038;-55
2021/11/28 07:24:42;;;;;;;3.70;3.35;;;9.90;81.80;;;;;;5157404;27;20134;-53
2021/11/28 07:27:08;;;;;;;3.88;3.40;;;9.90;81.80;;;;;;5157481;27;20037;-57
2021/11/28 07:29:34;;;;;;;4.18;3.70;;;9.90;81.80;;;;;;5157101;27;20050;-56
2021/11/28 07:32:00;;;;;;;4.45;4.05;;;9.90;81.80;;;;;;5157555;27;20042;-57
2021/11/28 07:34:26;;;;;;;4.03;3.63;;;9.90;81.80;;;;;;5157201;27;20478;-54
2021/11/28 07:36:52;;;;;;;3.85;3.47;;;9.90;81.80;;;;;;5156529;27;20066;-54
2021/11/28 07:39:18;;;;;;;3.47;3.17;;;9.90;81.80;;;;;;5155430;27;20089;-57
2021/11/28 07:41:44;;;;;;;3.47;3.17;;;9.90;81.80;;;;;;5137577;27;20524;-59
2021/11/28 07:44:09;;;;;;;3.67;3.33;;;9.90;81.80;;;;;;5156798;27;20037;-58
2021/11/28 07:46:35;;;;;;;4.57;3.28;;;9.90;81.80;;;;;;5156992;27;20043;-57
2021/11/28 07:49:01;;;;;;;4.07;3.67;;;9.90;81.80;;;;;;5156472;27;20049;-59
2021/11/28 07:51:27;;;;;;;4.35;3.65;;;9.90;81.80;;;;;;5156135;27;20493;-59
2021/11/28 07:53:55;;;;;;;4.75;4.25;;;9.90;81.80;;;;;;5156145;27;20069;-56
2021/11/28 07:56:22;;;;;;;3.92;3.53;;;9.90;81.80;;;;;;5156846;27;20050;-59
2021/11/28 07:58:49;;;;;;;3.95;3.40;;;9.90;81.80;;;;;;5156273;27;20071;-58
2021/11/28 08:01:15;;;;;;;3.45;3.15;;;10.00;81.90;;;;;;5156849;27;20038;-59
2021/11/28 08:03:40;;;;;;;3.90;3.42;;;9.90;81.80;;;;;;5156222;27;20039;-56
2021/11/28 08:06:06;;;;;;;3.53;3.20;;;9.90;81.80;;;;;;5155534;27;20035;-56
2021/11/28 08:08:33;;;;;;;3.55;3.17;;;9.90;81.80;;;;;;5155021;27;20042;-54
2021/11/28 08:10:59;;;;;;;3.40;3.05;;;9.90;81.80;;;;;;5155931;27;20117;-55
2021/11/28 08:13:26;;;;;;;3.75;3.38;;;9.90;81.80;;;;;;5137387;27;20052;-55
2021/11/28 08:15:52;;;;;;;3.88;3.35;;;9.90;81.90;;;;;;5156083;27;20133;-55
2021/11/28 08:18:17;;;;;;;3.67;3.00;;;9.90;81.80;;;;;;5156055;27;20046;-53
2021/11/28 08:20:43;;;;;;;3.40;3.10;;;10.00;81.90;;;;;;5135902;27;20444;-54
2021/11/28 08:23:09;;;;;;;3.65;3.30;;;9.90;81.80;;;;;;5135080;27;20077;-57
2021/11/28 08:25:35;;;;;;;3.60;3.30;;;9.90;81.80;;;;;;5114612;27;20054;-51
2021/11/28 08:28:01;;;;;;;3.40;3.10;;;9.90;81.80;;;;;;5142893;27;20043;-54
2021/11/28 08:30:27;;;;;;;3.20;2.90;;;9.90;81.80;;;;;;5153647;27;20133;-55
2021/11/28 08:32:53;;;;;;;3.47;3.17;;;9.90;81.80;;;;;;5155266;27;20410;-53
2021/11/28 08:35:19;;;;;;;3.45;2.88;;;9.90;81.80;;;;;;5155249;27;20038;-52
2021/11/28 08:37:46;;;;;;;4.20;3.03;;;10.00;81.90;;;;;;5155034;27;20090;-53
2021/11/28 08:40:15;;;;;;;4.15;3.45;;;9.90;81.80;;;;;;5154171;27;20094;-57
2021/11/28 08:42:41;;;;;;;3.25;2.95;;;9.90;81.80;;;;;;5154935;27;20431;-51
2021/11/28 08:45:08;;;;;;;3.70;2.70;;;9.90;81.80;;;;;;5155409;27;20031;-55
2021/11/28 08:47:35;;;;;;;3.20;2.70;;;9.90;81.90;;;;;;5154469;27;20051;-55
2021/11/28 08:50:01;;;;;;;3.15;2.80;;;9.90;81.80;;;;;;5155304;27;20115;-56
2021/11/28 08:52:27;;;;;;;3.15;2.67;;;9.80;81.80;;;;;;5154951;27;20039;-51
2021/11/28 08:54:53;;;;;;;3.33;3.03;;;9.90;81.90;;;;;;5153646;27;20665;-51
2021/11/28 08:57:18;;;;;;;4.25;2.65;;;9.90;81.80;;;;;;5154489;27;20054;-51
2021/11/28 08:59:44;;;;;;;3.28;2.85;;;9.90;81.90;;;;;;5154898;27;20045;-54
2021/11/28 09:02:11;;;;;;;3.20;2.70;;;9.90;81.90;;;;;;5154528;27;20042;-52
2021/11/28 09:04:38;;;;;;;3.83;2.83;;;9.90;81.90;;;;;;5135507;27;20395;-52
2021/11/28 09:07:04;;;;;;;3.35;3.05;;;9.90;81.90;;;;;;5154765;27;20141;-55
2021/11/28 09:09:30;;;;;;;3.13;2.83;;;9.90;81.90;;;;;;5153594;27;20126;-53
2021/11/28 09:11:57;;;;;;;3.25;2.95;;;9.90;81.90;;;;;;5134992;27;20444;-58
2021/11/28 09:14:22;;;;;;;2.65;2.45;;;9.90;81.90;;;;;;5135724;27;20498;-52
2021/11/28 09:16:48;;;;;;;2.97;2.50;;;9.90;81.90;;;;;;5154322;27;20068;-56
2021/11/28 09:21:40;;;;;;;2.70;2.45;;;9.90;81.90;;;;;;5154378;27;20118;-52
2021/11/28 09:27:13;;;;;;;2.40;2.20;;;9.90;81.90;;;;;;5070051;28;20044;-52
2021/11/28 09:29:42;;;;;;;2.53;2.33;;;9.90;81.90;;;;;;5070037;28;20119;-52
2021/11/28 09:32:09;;;;;;;2.72;2.17;;;9.90;81.90;;;;;;5070474;28;20092;-56
2021/11/28 09:34:36;;;;;;;2.50;2.30;;;10.00;81.90;;;;;;5070360;28;20470;-55
2021/11/28 09:37:03;;;;;;;3.28;2.53;;;9.90;81.90;;;;;;5070445;28;20454;-53
2021/11/28 09:39:28;;;;;;;2.92;2.40;;;9.90;81.90;;;;;;5070517;28;20049;-55
2021/11/28 09:42:04;;;;;;;2.53;2.30;;;9.90;81.90;;;;;;5077864;28;20089;-53
2021/11/28 09:44:35;;;;;;;2.72;2.40;;;10.00;81.90;;;;;;5069316;28;20774;-53
2021/11/28 09:47:02;;;;;;;2.40;2.20;;;9.90;81.90;;;;;;5069781;28;20055;-51
2021/11/28 09:49:29;;;;;;;2.40;2.20;;;9.90;81.90;;;;;;5079491;28;20101;-50
2021/11/28 09:51:56;;;;;;;2.95;2.50;;;9.90;81.90;;;;;;5074570;28;20059;-55
2021/11/28 09:54:23;;;;;;;2.30;2.10;;;9.90;81.90;;;;;;5066084;28;20041;-57
2021/11/28 09:56:50;;;;;;;2.65;2.17;;;9.90;81.80;;;;;;5073302;28;20461;-56
2021/11/28 09:59:17;;;;;;;2.60;2.10;;;9.90;81.80;;;;;;5150950;27;20065;-57
2021/11/28 10:01:43;;;;;;;2.33;2.10;;;9.90;81.80;;;;;;5151684;27;20451;-56
2021/11/28 10:04:09;;;;;;;2.53;2.28;;;9.90;81.80;;;;;;5153445;27;20053;-55
2021/11/28 10:06:35;;;;;;;2.47;2.28;;;9.90;81.80;;;;;;5153498;27;20497;-54
2021/11/28 10:09:06;;;;;;;2.25;2.05;;;9.90;81.80;;;;;;5152396;27;20545;-53
2021/11/28 10:12:10;;;;;;;2.40;2.05;;;9.90;81.80;;;;;;5152924;27;20385;-52
2021/11/28 10:14:35;;;;;;;2.67;2.10;;;9.90;81.80;;;;;;5132205;27;20051;-52
2021/11/28 10:17:01;;;;;;;2.30;2.10;;;9.90;81.80;;;;;;5132316;27;20131;-56
2021/11/28 10:19:29;;;;;;;2.00;1.75;;;9.90;81.80;;;;;;5151813;27;20129;-55
2021/11/28 10:21:54;;;;;;;1.85;1.75;;;9.90;81.80;;;;;;5152873;27;20102;-57
2021/11/28 10:24:20;;;;;;;2.15;1.95;;;9.90;81.80;;;;;;5144506;27;20176;-57
2021/11/28 10:26:56;;;;;;;2.08;1.88;;;9.90;81.80;;;;;;5143323;27;20410;-56
2021/11/28 10:29:30;;;;;;;2.15;1.95;;;9.90;81.70;;;;;;5149982;27;20047;-54
2021/11/28 10:31:59;;;;;;;3.25;1.95;;;9.90;81.70;;;;;;5146997;27;20042;-57
2021/11/28 10:34:34;;;;;;;2.47;2.22;;;9.90;81.70;;;;;;5152679;27;20034;-52
2021/11/28 10:37:07;;;;;;;2.00;1.80;;;9.90;81.70;;;;;;5153086;27;20042;-55
2021/11/28 10:39:37;;;;;;;2.30;1.70;;;9.90;81.80;;;;;;5153745;27;20062;-57
2021/11/28 10:42:03;;;;;;;2.50;2.30;;;9.90;81.80;;;;;;5152941;27;20087;-50
2021/11/28 10:44:29;;;;;;;2.45;1.73;;;9.90;81.70;;;;;;5153579;27;20184;-54
2021/11/28 10:47:07;;;;;;;2.10;1.70;;;10.00;81.70;;;;;;5134746;27;20126;-54
2021/11/28 10:49:38;;;;;;;2.97;1.63;;;9.90;81.70;;;;;;5153665;27;20110;-53
2021/11/28 10:52:14;;;;;;;2.20;1.70;;;10.00;81.80;;;;;;5152665;27;20091;-54
2021/11/28 10:54:45;;;;;;;1.85;1.67;;;9.90;81.70;;;;;;5134322;27;20060;-52
2021/11/28 10:57:11;;;;;;;2.15;1.70;;;9.90;81.70;;;;;;5153192;27;20106;-56
2021/11/28 10:59:52;;;;;;;1.90;1.70;;;9.90;81.70;;;;;;5152973;27;20051;-57
2021/11/28 11:02:20;;;;;;;1.92;1.73;;;9.90;81.70;;;;;;5153151;27;20042;-50
2021/11/28 11:04:46;;;;;;;2.15;1.88;;;9.90;81.60;;;;;;5134672;27;20149;-54
2021/11/28 11:07:13;;;;;;;1.85;1.60;;;9.90;81.60;;;;;;5150716;27;20141;-55
2021/11/28 11:09:44;;;;;;;1.77;1.58;;;9.90;81.60;;;;;;5134199;27;20051;-49
2021/11/28 11:12:42;;;;;;;1.55;1.45;;;10.00;81.60;;;;;;5133673;27;20097;-54
2021/11/28 11:15:07;;;;;;;1.88;1.75;;;9.90;81.50;;;;;;5048128;28;20056;-55
2021/11/28 11:17:34;;;;;;;1.50;1.40;;;9.90;81.60;;;;;;5048130;28;20057;-53
2021/11/28 11:20:00;;;;;;;1.73;1.60;;;9.90;81.60;;;;;;5048260;28;20111;-55
2021/11/28 11:22:31;;;;;;;2.03;1.70;;;10.00;81.60;;;;;;5047701;28;20055;-49
2021/11/28 11:25:02;;;;;;;1.75;1.65;;;9.90;81.60;;;;;;5039567;28;20045;-52
2021/11/28 11:27:34;;;;;;;1.92;1.60;;;9.90;81.60;;;;;;5048656;28;20041;-54
2021/11/28 11:30:12;;;;;;;1.85;1.55;;;9.90;81.50;;;;;;5048076;28;20085;-54
2021/11/28 11:32:44;;;;;;;1.67;1.58;;;9.90;82.10;;;;;;5046527;28;20071;-55
2021/11/28 11:35:17;;;;;;;1.58;1.45;;;10.00;81.60;;;;;;5051808;28;20049;-55
2021/11/28 11:37:43;;;;;;;1.50;1.40;;;9.90;81.50;;;;;;5050788;28;20068;-56
2021/11/28 11:40:10;;;;;;;1.70;1.40;;;10.00;81.60;;;;;;5052196;28;20485;-52
2021/11/28 11:42:38;;;;;;;1.70;1.52;;;9.90;81.50;;;;;;5051875;28;20094;-52
2021/11/28 11:45:06;;;;;;;1.73;1.60;;;10.00;81.60;;;;;;5034651;28;20052;-55
2021/11/28 11:47:32;;;;;;;1.65;1.30;;;9.90;81.50;;;;;;5052427;28;20500;-52
2021/11/28 11:49:58;;;;;;;1.60;1.35;;;9.90;81.50;;;;;;5051135;28;20049;-50
2021/11/28 11:52:24;;;;;;;1.50;1.40;;;9.90;81.50;;;;;;5126613;27;20104;-55
2021/11/28 11:54:55;;;;;;;1.70;1.45;;;9.90;81.50;;;;;;5147334;27;20039;-56
2021/11/28 11:57:25;;;;;;;1.25;1.15;;;9.90;81.40;;;;;;5156275;27;20050;-55
2021/11/28 12:00:11;;;;;;;1.40;1.20;;;9.90;81.40;;;;;;5141671;27;20047;-54
2021/11/28 12:02:50;;;;;;;2.50;1.23;;;10.00;81.40;;;;;;5135412;27;20069;-56
2021/11/28 12:05:24;;;;;;;1.38;1.17;;;9.90;81.40;;;;;;5150285;27;20043;-55
2021/11/28 12:07:59;;;;;;;1.50;1.40;;;10.00;81.40;;;;;;5155997;27;20034;-56
2021/11/28 12:10:33;;;;;;;2.10;1.25;;;9.90;81.40;;;;;;5118812;27;20057;-55
2021/11/28 12:13:02;;;;;;;1.70;1.60;;;9.90;81.50;;;;;;5144284;27;20453;-54
2021/11/28 12:15:36;;;;;;;1.17;1.08;;;10.00;81.40;;;;;;5132604;27;20065;-50
2021/11/28 12:18:03;;;;;;;1.02;1.00;;;9.90;81.40;;;;;;5153899;27;20042;-51
2021/11/28 12:21:00;;;;;;;1.30;1.20;;;9.90;81.40;;;;;;5141698;27;20091;-47
2021/11/28 12:23:49;;;;;;;1.45;1.15;;;9.90;81.40;;;;;;5050824;28;20499;-55
2021/11/28 12:26:27;;;;;;;1.30;1.20;;;9.90;81.30;;;;;;5050665;28;20045;-54
2021/11/28 12:28:55;;;;;;;1.73;1.17;;;9.90;81.30;;;;;;5033769;28;20081;-54
2021/11/28 12:31:28;;;;;;;1.20;1.10;;;10.00;81.40;;;;;;5051201;28;20045;-56
2021/11/28 12:33:54;;;;;;;1.35;1.00;;;9.90;81.30;;;;;;5050746;28;20449;-50
2021/11/28 12:39:15;;;;;;;1.10;1.00;;;10.00;81.30;;;;;;5049937;28;20067;-51
2021/11/28 12:41:44;;;;;;;1.20;1.10;;;9.90;81.30;;;;;;5050865;28;20109;-57
2021/11/28 12:44:22;;;;;;;1.77;1.25;;;9.90;81.30;;;;;;5050790;28;20041;-53
2021/11/28 12:46:57;;;;;;;1.52;1.27;;;9.90;81.30;;;;;;5050842;28;20049;-47
2021/11/28 12:49:44;;;;;;;0.90;0.90;;;9.90;81.30;;;;;;5050622;28;20044;-51
2021/11/28 12:52:25;;;;;;;1.20;1.00;;;9.90;81.30;;;;;;5050748;28;20045;-54
2021/11/28 12:55:04;;;;;;;1.08;0.98;;;9.90;81.20;;;;;;5049960;28;20059;-54
2021/11/28 12:57:33;;;;;;;1.27;1.17;;;10.00;81.30;;;;;;5047672;28;20055;-53
2021/11/28 13:00:17;;;;;;;1.35;1.10;;;9.90;81.30;;;;;;5093467;27;20055;-52
2021/11/28 13:02:56;;;;;;;1.02;0.93;;;10.00;81.30;;;;;;5111684;27;20097;-53
2021/11/28 13:05:32;;;;;;;1.73;0.98;;;9.90;81.20;;;;;;5131609;27;20383;-50
2021/11/28 13:08:01;;;;;;;1.38;1.00;;;10.00;81.40;;;;;;5130379;27;20047;-54
2021/11/28 13:10:46;;;;;;;1.15;1.02;;;9.90;81.30;;;;;;5138640;27;20050;-57